Lacarne, Ohio
Current Conditions -  °F | °C
As of 11:53 AM on Saturday 22 Nov 2014 (Local Time) from KPCW Reporting Station
Overcast Overcast  
Wind Chill: 36°   Ceiling: 9000
Heat Index: 43°   Visibility: 10mi
Dew Point: 37°   Wind: 14mph
Humidity: 81%   Direction: 210°SSW
Pressure: 30.08"   Gusts: NA
Location:  41.52°N, 83.04°W
Report Text: KPCW 221653Z AUTO 21012KT 10SM SCT036 OVC090 06/03 A3008 RMK AO2
Loading
Personal Weather Stations






























Interactive Weather Map New forecast layout! Learn more

10-Day Weather Forecast

Advertisements
Track Severe Weather on mobile